createdAt,value
2023-05-15T00:01:06.715Z,10.15
2023-05-15T00:03:51.898Z,10.11
2023-05-15T00:06:37.853Z,10.33
2023-05-15T00:09:23.790Z,10.35
2023-05-15T00:12:09.360Z,10.18
2023-05-15T00:14:54.997Z,10.11
2023-05-15T00:17:40.457Z,10.11
2023-05-15T00:20:25.930Z,10.24
2023-05-15T00:23:11.216Z,10.24
2023-05-15T00:25:56.549Z,10.24
2023-05-15T00:28:41.816Z,9.99
2023-05-15T00:31:27.166Z,10.10
2023-05-15T00:34:12.413Z,10.00
2023-05-15T00:36:57.811Z,9.51
2023-05-15T00:39:43.228Z,9.89
2023-05-15T00:42:29.336Z,9.98
2023-05-15T00:45:16.474Z,9.91
2023-05-15T00:48:01.797Z,9.90
2023-05-15T00:50:47.509Z,9.95
2023-05-15T00:53:33.775Z,9.86
2023-05-15T00:56:20.057Z,9.79
2023-05-15T00:59:06.522Z,9.73
2023-05-15T01:01:52.077Z,9.64
2023-05-15T01:04:37.382Z,9.52
2023-05-15T01:07:22.630Z,9.51
2023-05-15T01:10:08.890Z,9.49
2023-05-15T01:12:55.557Z,9.16
2023-05-15T01:15:41.411Z,9.33
2023-05-15T01:18:26.819Z,9.20
2023-05-15T01:21:34.818Z,9.05
2023-05-15T01:24:47.411Z,9.09
2023-05-15T01:27:39.666Z,9.12
2023-05-15T01:30:30.526Z,9.18
2023-05-15T01:33:24.625Z,9.15
2023-05-15T01:36:15.335Z,8.84
2023-05-15T01:39:03.400Z,8.46
2023-05-15T01:42:02.681Z,8.35
2023-05-15T01:44:54.733Z,8.51
2023-05-15T01:47:44.943Z,8.65
2023-05-15T01:50:32.711Z,8.71
2023-05-15T01:53:20.130Z,8.73
2023-05-15T01:56:07.359Z,8.63
2023-05-15T01:58:55.462Z,8.59
2023-05-15T02:01:42.092Z,8.38
2023-05-15T02:04:27.818Z,8.49
2023-05-15T02:07:14.840Z,8.49
2023-05-15T02:10:00.166Z,8.47
2023-05-15T02:12:46.744Z,8.06
2023-05-15T02:15:32.725Z,8.29
2023-05-15T02:18:18.501Z,8.27
2023-05-15T02:21:03.934Z,8.17
2023-05-15T02:23:49.570Z,8.15
2023-05-15T02:26:40.809Z,8.05
2023-05-15T02:29:31.982Z,8.06
2023-05-15T02:32:33.544Z,8.09
2023-05-15T02:35:34.008Z,8.05
2023-05-15T02:38:28.258Z,7.98
2023-05-15T02:41:15.126Z,7.90
2023-05-15T02:44:01.241Z,7.85
2023-05-15T02:46:48.170Z,7.81
2023-05-15T02:49:33.860Z,7.68
2023-05-15T02:52:19.408Z,7.79
2023-05-15T02:55:05.193Z,7.69
2023-05-15T02:57:50.359Z,7.63
2023-05-15T03:00:35.510Z,7.61
2023-05-15T03:03:21.105Z,7.63
2023-05-15T03:06:06.737Z,7.53
2023-05-15T03:08:52.366Z,7.41
2023-05-15T03:11:37.467Z,7.49
2023-05-15T03:14:23.140Z,7.40
2023-05-15T03:17:08.971Z,7.40
2023-05-15T03:19:54.536Z,7.51
2023-05-15T03:22:39.955Z,7.38
2023-05-15T03:25:26.519Z,7.12
2023-05-15T03:28:12.141Z,7.27
2023-05-15T03:30:57.543Z,7.35
2023-05-15T03:33:42.626Z,7.36
2023-05-15T03:36:28.222Z,7.30
2023-05-15T03:39:13.630Z,7.23
2023-05-15T03:41:59.055Z,7.26
2023-05-15T03:44:44.308Z,7.29
2023-05-15T03:47:31.854Z,7.26
2023-05-15T03:50:17.060Z,6.86
2023-05-15T03:53:02.679Z,6.85
2023-05-15T03:55:48.196Z,6.89
2023-05-15T03:58:33.574Z,6.99
2023-05-15T04:01:18.707Z,7.01
2023-05-15T04:04:04.399Z,6.94
2023-05-15T04:06:50.766Z,6.79
2023-05-15T04:09:35.821Z,7.01
2023-05-15T04:12:21.363Z,6.88
2023-05-15T04:15:17.144Z,6.68
2023-05-15T04:18:02.290Z,6.72
2023-05-15T04:20:47.806Z,7.01
2023-05-15T04:23:33.147Z,7.09
2023-05-15T04:26:18.394Z,7.09
2023-05-15T04:29:04.777Z,7.14
2023-05-15T04:31:50.098Z,7.02
2023-05-15T04:34:35.725Z,7.18
2023-05-15T04:37:21.380Z,7.26
2023-05-15T04:40:07.403Z,7.17
2023-05-15T04:42:53.112Z,7.13
2023-05-15T04:45:38.359Z,7.18
2023-05-15T04:48:23.746Z,7.38
2023-05-15T04:51:09.048Z,7.52
2023-05-15T04:53:54.601Z,7.74
2023-05-15T04:56:39.815Z,7.85
2023-05-15T04:59:25.418Z,7.95
2023-05-15T05:02:10.853Z,8.20
2023-05-15T05:04:56.348Z,8.41
2023-05-15T05:07:41.421Z,8.38
2023-05-15T05:10:27.192Z,8.32
2023-05-15T05:13:12.568Z,8.27
2023-05-15T05:15:58.451Z,8.22
2023-05-15T05:18:43.523Z,7.80
2023-05-15T05:21:29.060Z,8.42
2023-05-15T05:24:14.606Z,8.35
2023-05-15T05:26:59.903Z,8.13
2023-05-15T05:29:45.176Z,8.28
2023-05-15T05:32:30.625Z,8.35
2023-05-15T05:35:15.878Z,8.60
2023-05-15T05:38:01.237Z,8.01
2023-05-15T05:40:46.686Z,8.86
2023-05-15T05:43:32.322Z,9.32
2023-05-15T05:46:17.738Z,9.35
2023-05-15T05:49:03.014Z,9.02
2023-05-15T05:51:48.085Z,8.82
2023-05-15T05:54:33.753Z,8.96
2023-05-15T05:57:19.358Z,9.03
2023-05-15T06:00:05.538Z,8.96
2023-05-15T06:02:58.227Z,9.00
2023-05-15T06:05:44.384Z,9.01
2023-05-15T06:08:29.896Z,8.97
2023-05-15T06:11:15.142Z,9.10
2023-05-15T06:14:00.247Z,9.42
2023-05-15T06:16:45.666Z,9.21
2023-05-15T06:19:31.089Z,9.32
2023-05-15T06:22:16.458Z,9.25
2023-05-15T06:25:02.399Z,9.41
2023-05-15T06:27:47.604Z,9.45
2023-05-15T06:30:33.078Z,9.62
2023-05-15T06:33:18.335Z,9.69
2023-05-15T06:36:03.971Z,10.03
2023-05-15T06:38:49.419Z,9.96
2023-05-15T06:41:34.623Z,10.03
2023-05-15T06:44:19.786Z,10.31
2023-05-15T06:47:05.502Z,10.32
2023-05-15T06:49:50.972Z,10.13
2023-05-15T06:52:36.465Z,10.29
2023-05-15T06:55:21.878Z,10.40
2023-05-15T06:58:07.211Z,10.48
2023-05-15T07:00:54.138Z,10.63
2023-05-15T07:03:40.817Z,10.60
2023-05-15T07:06:26.447Z,10.76
2023-05-15T07:09:12.941Z,10.45
2023-05-15T07:11:58.297Z,10.63
2023-05-15T07:14:43.788Z,10.91
2023-05-15T07:17:31.586Z,10.96
2023-05-15T07:20:17.023Z,10.98
2023-05-15T07:23:02.845Z,11.17
2023-05-15T07:25:48.343Z,11.29
2023-05-15T07:28:33.733Z,11.39
2023-05-15T07:31:20.256Z,11.55
2023-05-15T07:34:05.839Z,11.51
2023-05-15T07:36:51.350Z,11.75
2023-05-15T07:39:36.776Z,11.97
2023-05-15T07:42:22.061Z,11.66
2023-05-15T07:45:08.327Z,12.32
2023-05-15T07:47:53.357Z,12.41
2023-05-15T07:50:38.431Z,12.43
2023-05-15T07:53:23.866Z,13.03
2023-05-15T07:56:10.092Z,13.11
2023-05-15T07:58:55.588Z,13.78
2023-05-15T08:01:40.667Z,13.66
2023-05-15T08:04:26.146Z,13.72
2023-05-15T08:07:12.951Z,14.39
2023-05-15T08:09:58.220Z,14.74
2023-05-15T08:12:43.582Z,14.94
2023-05-15T08:15:28.742Z,14.82
2023-05-15T08:18:14.275Z,15.01
2023-05-15T08:20:59.370Z,14.93
2023-05-15T08:23:44.850Z,14.85
2023-05-15T08:26:30.496Z,15.25
2023-05-15T08:29:15.841Z,15.57
2023-05-15T08:32:01.304Z,15.70
2023-05-15T08:34:46.678Z,15.97
2023-05-15T08:37:31.917Z,15.80
2023-05-15T08:40:19.788Z,16.54
2023-05-15T08:43:13.212Z,16.70
2023-05-15T08:45:59.828Z,16.50
2023-05-15T08:48:45.616Z,16.20
2023-05-15T08:51:31.871Z,16.63
2023-05-15T08:54:18.194Z,16.95
2023-05-15T08:57:04.530Z,17.44
2023-05-15T08:59:51.500Z,17.75
2023-05-15T09:02:37.456Z,17.51
2023-05-15T09:05:22.967Z,17.49
2023-05-15T09:08:08.759Z,16.82
2023-05-15T09:10:56.482Z,16.51
2023-05-15T09:13:41.664Z,16.18
2023-05-15T09:16:28.022Z,15.96
2023-05-15T09:19:15.367Z,15.67
2023-05-15T09:22:20.525Z,15.28
2023-05-15T09:25:06.053Z,15.36
2023-05-15T09:27:51.512Z,15.70
2023-05-15T09:30:42.556Z,15.92
2023-05-15T09:33:29.950Z,15.62
2023-05-15T09:36:21.698Z,16.05
2023-05-15T09:39:09.007Z,16.12
2023-05-15T09:41:54.441Z,16.31
2023-05-15T09:44:44.316Z,16.15
2023-05-15T09:47:30.019Z,15.16
2023-05-15T09:50:21.168Z,15.60
2023-05-15T09:53:06.713Z,15.75
2023-05-15T09:55:53.148Z,16.00
2023-05-15T09:58:38.520Z,16.27
2023-05-15T10:01:24.845Z,16.11
2023-05-15T10:04:10.526Z,16.27
2023-05-15T10:06:55.989Z,16.57
2023-05-15T10:09:41.211Z,16.64
2023-05-15T10:12:28.589Z,16.43
2023-05-15T10:15:14.906Z,16.17
2023-05-15T10:18:00.571Z,16.19
2023-05-15T10:20:46.264Z,15.96
2023-05-15T10:23:33.096Z,15.75
2023-05-15T10:26:35.201Z,15.96
2023-05-15T10:29:22.161Z,16.25
2023-05-15T10:32:08.465Z,16.54
2023-05-15T10:34:54.545Z,16.89
2023-05-15T10:37:40.305Z,15.98
2023-05-15T10:40:26.897Z,16.01
2023-05-15T10:43:14.005Z,16.26
2023-05-15T10:45:59.624Z,16.06
2023-05-15T10:48:45.347Z,16.10
2023-05-15T10:51:32.807Z,15.73
2023-05-15T10:54:18.134Z,15.93
2023-05-15T10:57:04.634Z,16.09
2023-05-15T10:59:50.529Z,16.22
2023-05-15T11:02:39.001Z,16.84
2023-05-15T11:05:25.471Z,17.59
2023-05-15T11:08:16.806Z,17.56
2023-05-15T11:11:02.098Z,17.66
2023-05-15T11:14:05.347Z,17.39
2023-05-15T11:16:54.067Z,17.55
2023-05-15T11:19:51.677Z,17.46
2023-05-15T11:22:37.333Z,17.39
2023-05-15T11:25:29.586Z,17.01
2023-05-15T11:28:25.314Z,16.94
2023-05-15T11:31:10.857Z,17.28
2023-05-15T11:33:56.195Z,17.29
2023-05-15T11:36:42.420Z,17.72
2023-05-15T11:39:28.519Z,18.14
2023-05-15T11:42:14.194Z,17.72
2023-05-15T11:44:59.805Z,18.17
2023-05-15T11:47:45.397Z,18.48
2023-05-15T11:50:32.260Z,18.84
2023-05-15T11:53:18.350Z,18.46
2023-05-15T11:56:03.911Z,17.33
2023-05-15T11:58:51.020Z,16.54
2023-05-15T12:01:43.715Z,16.27
2023-05-15T12:04:29.383Z,16.24
2023-05-15T12:07:14.613Z,15.95
2023-05-15T12:10:00.826Z,15.47
2023-05-15T12:12:46.484Z,15.57
2023-05-15T12:15:31.756Z,15.44
2023-05-15T12:18:17.262Z,15.51
2023-05-15T12:21:02.877Z,15.65
2023-05-15T12:23:59.855Z,14.93
2023-05-15T12:26:52.434Z,15.49
2023-05-15T12:29:39.090Z,15.32
2023-05-15T12:32:24.902Z,15.61
2023-05-15T12:35:10.959Z,15.54
2023-05-15T12:37:56.176Z,15.39
2023-05-15T12:40:43.296Z,15.32
2023-05-15T12:43:31.361Z,15.41
2023-05-15T12:46:22.769Z,15.58
2023-05-15T12:49:08.418Z,15.74
2023-05-15T12:51:53.853Z,15.95
2023-05-15T12:54:43.523Z,16.00
2023-05-15T12:57:28.954Z,16.22
2023-05-15T13:00:15.228Z,16.61
2023-05-15T13:03:01.729Z,16.23
2023-05-15T13:05:47.471Z,16.39
2023-05-15T13:08:32.857Z,16.28
2023-05-15T13:11:18.464Z,16.63
2023-05-15T13:14:09.490Z,16.64
2023-05-15T13:16:54.651Z,16.60
2023-05-15T13:19:39.817Z,16.61
2023-05-15T13:22:25.772Z,16.51
2023-05-15T13:25:12.567Z,16.24
2023-05-15T13:27:59.436Z,16.44
2023-05-15T13:30:44.832Z,16.57
2023-05-15T13:33:30.378Z,16.77
2023-05-15T13:36:15.774Z,16.95
2023-05-15T13:39:01.069Z,17.01
2023-05-15T13:41:46.575Z,16.74
2023-05-15T13:44:32.093Z,17.05
2023-05-15T13:47:17.214Z,17.21
2023-05-15T13:50:03.234Z,16.75
2023-05-15T13:52:48.914Z,16.93
2023-05-15T13:55:34.204Z,16.94
2023-05-15T13:58:19.634Z,17.37
2023-05-15T14:01:05.737Z,17.66
2023-05-15T14:03:51.383Z,17.72
2023-05-15T14:06:36.541Z,17.94
2023-05-15T14:09:21.833Z,17.90
2023-05-15T14:12:07.147Z,18.10
2023-05-15T14:14:52.698Z,18.28
2023-05-15T14:17:38.322Z,18.42
2023-05-15T14:20:23.807Z,18.20
2023-05-15T14:23:09.007Z,17.83
2023-05-15T14:25:54.672Z,18.46
2023-05-15T14:28:39.741Z,18.32
2023-05-15T14:31:25.392Z,18.36
2023-05-15T14:34:10.580Z,18.59
2023-05-15T14:36:55.615Z,18.90
2023-05-15T14:39:40.858Z,18.32
2023-05-15T14:42:26.208Z,17.74
2023-05-15T14:45:11.757Z,17.38
2023-05-15T14:47:56.990Z,17.19
2023-05-15T14:50:42.098Z,17.13
2023-05-15T14:53:27.982Z,16.62
2023-05-15T14:56:13.480Z,16.30
2023-05-15T14:58:58.906Z,15.97
2023-05-15T15:01:44.039Z,16.02
2023-05-15T15:04:31.228Z,16.35
2023-05-15T15:07:16.640Z,16.51
2023-05-15T15:10:01.753Z,16.75
2023-05-15T15:12:47.028Z,17.04
2023-05-15T15:15:33.998Z,16.84
2023-05-15T15:18:22.144Z,16.66
2023-05-15T15:21:07.188Z,16.71
2023-05-15T15:23:52.425Z,16.58
2023-05-15T15:26:38.301Z,16.53
2023-05-15T15:29:23.957Z,16.58
2023-05-15T15:32:09.198Z,16.80
2023-05-15T15:34:56.069Z,16.14
2023-05-15T15:37:41.486Z,16.36
2023-05-15T15:40:27.315Z,16.02
2023-05-15T15:43:13.438Z,16.54
2023-05-15T15:45:59.037Z,16.73
2023-05-15T15:48:45.267Z,16.87
2023-05-15T15:51:30.723Z,16.84
2023-05-15T15:54:16.440Z,17.06
2023-05-15T15:57:02.957Z,17.14
2023-05-15T15:59:48.406Z,17.30
2023-05-15T16:02:34.163Z,17.19
2023-05-15T16:05:19.474Z,17.09
2023-05-15T16:08:06.109Z,17.07
2023-05-15T16:10:53.928Z,16.89
2023-05-15T16:13:40.947Z,16.42
2023-05-15T16:16:26.569Z,15.77
2023-05-15T16:19:12.883Z,15.84
2023-05-15T16:21:58.262Z,15.70
2023-05-15T16:24:43.657Z,15.68
2023-05-15T16:27:29.397Z,15.89
2023-05-15T16:30:14.731Z,15.48
2023-05-15T16:33:00.338Z,15.65
2023-05-15T16:35:46.488Z,15.77
2023-05-15T16:38:31.987Z,15.92
2023-05-15T16:41:17.985Z,15.90
2023-05-15T16:44:03.351Z,16.09
2023-05-15T16:46:49.059Z,16.09
2023-05-15T16:49:34.387Z,15.82
2023-05-15T16:52:19.544Z,16.18
2023-05-15T16:55:05.730Z,16.05
2023-05-15T16:57:50.992Z,15.96
2023-05-15T17:00:36.189Z,15.88
2023-05-15T17:03:21.830Z,15.93
2023-05-15T17:06:07.856Z,15.59
2023-05-15T17:08:53.123Z,15.46
2023-05-15T17:11:38.437Z,15.22
2023-05-15T17:14:23.862Z,15.79
2023-05-15T17:17:09.023Z,15.27
2023-05-15T17:19:55.629Z,15.45
2023-05-15T17:22:41.160Z,15.57
2023-05-15T17:25:26.553Z,15.55
2023-05-15T17:28:12.102Z,15.61
2023-05-15T17:30:57.563Z,15.24
2023-05-15T17:33:42.885Z,15.08
2023-05-15T17:36:28.108Z,14.97
2023-05-15T17:39:13.466Z,14.44
2023-05-15T17:41:58.706Z,14.69
2023-05-15T17:44:43.846Z,14.63
2023-05-15T17:47:29.094Z,14.62
2023-05-15T17:50:14.409Z,14.62
2023-05-15T17:53:00.163Z,14.80
2023-05-15T17:55:45.650Z,14.98
2023-05-15T17:58:31.009Z,15.08
2023-05-15T18:01:16.440Z,14.87
2023-05-15T18:04:01.665Z,15.00
2023-05-15T18:06:47.082Z,15.09
2023-05-15T18:09:32.620Z,15.03
2023-05-15T18:12:17.833Z,14.73
2023-05-15T18:15:03.354Z,15.25
2023-05-15T18:17:48.890Z,14.92
2023-05-15T18:20:34.422Z,14.93
2023-05-15T18:23:20.214Z,15.28
2023-05-15T18:26:05.629Z,15.23
2023-05-15T18:28:51.376Z,15.18
2023-05-15T18:31:36.744Z,14.96
2023-05-15T18:34:22.230Z,14.72
2023-05-15T18:37:07.775Z,14.55
2023-05-15T18:39:52.994Z,14.49
2023-05-15T18:42:38.302Z,14.45
2023-05-15T18:45:24.746Z,14.45
2023-05-15T18:48:10.642Z,13.86
2023-05-15T18:50:55.805Z,14.02
2023-05-15T18:53:41.116Z,14.15
2023-05-15T18:56:26.856Z,14.12
2023-05-15T18:59:12.323Z,14.03
2023-05-15T19:01:57.913Z,13.76
2023-05-15T19:04:43.034Z,13.44
2023-05-15T19:07:28.190Z,13.32
2023-05-15T19:10:13.686Z,13.04
2023-05-15T19:12:59.201Z,13.08
2023-05-15T19:15:53.714Z,13.16
2023-05-15T19:18:39.226Z,13.08
2023-05-15T19:21:24.629Z,12.73
2023-05-15T19:24:09.879Z,12.55
2023-05-15T19:26:55.119Z,12.41
2023-05-15T19:29:42.743Z,12.51
2023-05-15T19:32:28.351Z,12.55
2023-05-15T19:35:14.098Z,12.63
2023-05-15T19:37:59.586Z,12.58
2023-05-15T19:40:45.142Z,12.63
2023-05-15T19:43:30.814Z,12.66
2023-05-15T19:46:19.588Z,12.70
2023-05-15T19:49:05.719Z,12.46
2023-05-15T19:51:50.933Z,12.36
2023-05-15T19:54:36.003Z,12.59
2023-05-15T19:57:21.578Z,12.63
2023-05-15T20:00:07.668Z,12.74
2023-05-15T20:02:53.070Z,12.86
2023-05-15T20:05:39.817Z,12.81
2023-05-15T20:08:25.495Z,12.78
2023-05-15T20:11:10.924Z,12.81
2023-05-15T20:13:56.046Z,12.77
2023-05-15T20:16:41.498Z,12.66
2023-05-15T20:19:27.584Z,12.81
2023-05-15T20:22:12.787Z,12.74
2023-05-15T20:24:58.196Z,12.71
2023-05-15T20:27:43.365Z,12.73
2023-05-15T20:30:29.094Z,12.70
2023-05-15T20:33:14.698Z,12.73
2023-05-15T20:36:00.378Z,12.69
2023-05-15T20:38:45.591Z,12.71
2023-05-15T20:41:31.021Z,12.65
2023-05-15T20:44:16.550Z,12.66
2023-05-15T20:47:02.784Z,12.69
2023-05-15T20:49:48.113Z,12.73
2023-05-15T20:52:33.583Z,12.80
2023-05-15T20:55:18.964Z,12.13
2023-05-15T20:58:04.761Z,12.36
2023-05-15T21:00:49.909Z,12.54
2023-05-15T21:03:35.417Z,12.77
2023-05-15T21:06:21.288Z,12.71
2023-05-15T21:09:06.448Z,12.67
2023-05-15T21:11:51.787Z,12.49
2023-05-15T21:14:36.909Z,12.35
2023-05-15T21:17:22.255Z,12.22
2023-05-15T21:20:08.480Z,11.85
2023-05-15T21:22:53.887Z,12.10
2023-05-15T21:25:39.279Z,12.09
2023-05-15T21:28:24.226Z,12.08
2023-05-15T21:31:10.602Z,11.97
2023-05-15T21:33:56.013Z,11.90
2023-05-15T21:36:41.400Z,11.57
2023-05-15T21:39:26.968Z,11.66
2023-05-15T21:42:12.406Z,11.75
2023-05-15T21:44:57.932Z,11.84
2023-05-15T21:47:43.478Z,11.81
2023-05-15T21:50:28.982Z,11.84
2023-05-15T21:53:14.125Z,11.77
2023-05-15T21:56:03.015Z,11.46
2023-05-15T21:58:48.233Z,11.63
2023-05-15T22:01:33.549Z,11.47
2023-05-15T22:04:18.907Z,11.32
2023-05-15T22:07:04.735Z,11.18
2023-05-15T22:09:50.062Z,10.98
2023-05-15T22:12:35.709Z,10.80
2023-05-15T22:15:20.991Z,11.00
2023-05-15T22:18:06.722Z,10.92
2023-05-15T22:20:52.212Z,10.90
2023-05-15T22:23:37.305Z,10.94
2023-05-15T22:26:22.926Z,10.28
2023-05-15T22:29:08.392Z,10.74
2023-05-15T22:31:54.065Z,10.68
2023-05-15T22:34:39.328Z,10.50
2023-05-15T22:37:24.575Z,10.62
2023-05-15T22:40:10.598Z,10.58
2023-05-15T22:42:55.929Z,10.57
2023-05-15T22:45:41.107Z,10.44
2023-05-15T22:48:26.720Z,10.20
2023-05-15T22:51:12.189Z,10.13
2023-05-15T22:53:57.641Z,9.86
2023-05-15T22:56:42.876Z,10.05
2023-05-15T22:59:28.447Z,9.88
2023-05-15T23:02:13.733Z,9.94
2023-05-15T23:04:59.000Z,10.03
2023-05-15T23:07:44.635Z,10.16
2023-05-15T23:10:30.150Z,10.30
2023-05-15T23:13:15.306Z,10.26
2023-05-15T23:16:00.542Z,10.32
2023-05-15T23:18:46.017Z,10.34
2023-05-15T23:21:32.368Z,10.35
2023-05-15T23:24:17.816Z,10.48
2023-05-15T23:27:03.155Z,10.09
2023-05-15T23:29:48.510Z,10.51
2023-05-15T23:32:34.272Z,10.55
2023-05-15T23:35:19.621Z,10.66
2023-05-15T23:38:05.118Z,10.76
2023-05-15T23:40:50.369Z,10.47
2023-05-15T23:43:35.772Z,10.77
2023-05-15T23:46:21.112Z,10.64
2023-05-15T23:49:06.821Z,10.81
2023-05-15T23:51:51.953Z,10.79
2023-05-15T23:54:37.746Z,10.80
2023-05-15T23:57:23.200Z,10.83
